Time;durP1;ratioP1;P1;durP2;ratioP2;P2;SDS_P1;SDS_P2;PMS_P1;PMS_P2;Temp;Humidity;BMP_temperature;BMP_pressure;BME280_temperature;BME280_humidity;BME280_pressure;Samples;Min_cycle;Max_cycle;Signal;HPM_P1;HPM_P2
2022/09/11 00:00:12;;;;;;;38.85;27.25;;;15.10;99.90;;;;;;5051776;28;20500;-70
2022/09/11 00:02:37;;;;;;;35.25;26.27;;;15.20;99.90;;;;;;5052109;28;20445;-70
2022/09/11 00:05:03;;;;;;;32.10;25.75;;;15.10;99.90;;;;;;5050951;28;20032;-69
2022/09/11 00:07:29;;;;;;;29.98;25.25;;;15.00;99.90;;;;;;5045805;28;20035;-71
2022/09/11 00:09:55;;;;;;;31.33;25.90;;;14.90;99.90;;;;;;5052058;28;20021;-69
2022/09/11 00:12:21;;;;;;;34.80;27.02;;;15.00;99.90;;;;;;5055327;28;20086;-70
2022/09/11 00:14:46;;;;;;;32.95;25.88;;;15.00;99.90;;;;;;5055377;28;20390;-70
2022/09/11 00:17:12;;;;;;;29.20;26.10;;;14.80;99.90;;;;;;5051409;28;20058;-70
2022/09/11 00:19:40;;;;;;;34.90;27.40;;;14.90;99.90;;;;;;5062796;28;20043;-70
2022/09/11 00:22:05;;;;;;;37.88;29.35;;;14.90;99.90;;;;;;5071499;28;20017;-70
2022/09/11 00:24:31;;;;;;;33.88;26.98;;;14.90;99.90;;;;;;5071776;28;20066;-70
2022/09/11 00:26:56;;;;;;;34.53;27.98;;;15.00;99.90;;;;;;5071304;28;20040;-70
2022/09/11 00:29:22;;;;;;;35.78;27.35;;;14.70;99.90;;;;;;5071367;28;20310;-70
2022/09/11 00:31:48;;;;;;;34.00;28.77;;;14.90;99.90;;;;;;5071855;28;20068;-70
2022/09/11 00:34:13;;;;;;;41.58;29.33;;;14.90;99.90;;;;;;5070479;28;20032;-70
2022/09/11 00:36:40;;;;;;;33.83;27.27;;;14.90;99.90;;;;;;5060413;28;20338;-70
2022/09/11 00:39:06;;;;;;;34.28;27.50;;;14.90;99.90;;;;;;5069833;28;20031;-70
2022/09/11 00:41:38;;;;;;;37.33;28.40;;;15.00;99.90;;;;;;5063853;28;20033;-70
2022/09/11 00:44:14;;;;;;;34.88;27.75;;;14.80;99.90;;;;;;5071442;28;20077;-70
2022/09/11 00:46:47;;;;;;;35.75;28.15;;;14.90;99.90;;;;;;5071369;28;20020;-70
2022/09/11 00:49:20;;;;;;;36.70;28.98;;;14.90;99.90;;;;;;5070861;28;20031;-70
2022/09/11 00:51:56;;;;;;;38.60;28.83;;;14.90;99.90;;;;;;5071403;28;20021;-70
2022/09/11 00:54:29;;;;;;;33.63;28.55;;;14.90;99.90;;;;;;5070834;28;20035;-70
2022/09/11 00:56:57;;;;;;;34.03;29.48;;;14.90;99.90;;;;;;5071319;28;20043;-70
2022/09/11 00:59:26;;;;;;;37.88;29.70;;;14.80;99.90;;;;;;5070386;28;20036;-69
2022/09/11 01:01:52;;;;;;;38.08;30.20;;;14.80;99.90;;;;;;5071182;28;20027;-69
2022/09/11 01:04:20;;;;;;;38.75;29.83;;;14.80;99.90;;;;;;5056877;28;20470;-70
2022/09/11 01:06:46;;;;;;;38.35;28.77;;;14.80;99.90;;;;;;5059290;28;20074;-70
2022/09/11 01:09:12;;;;;;;36.88;28.92;;;14.70;99.90;;;;;;5070033;28;20033;-70
2022/09/11 01:12:08;;;;;;;41.88;31.48;;;14.70;99.90;;;;;;5071016;28;20012;-70
2022/09/11 01:15:06;;;;;;;37.78;29.17;;;14.70;99.90;;;;;;5034310;28;20040;-70
2022/09/11 01:17:44;;;;;;;43.55;30.08;;;14.70;99.90;;;;;;5019341;28;20216;-70
2022/09/11 01:20:43;;;;;;;36.28;27.33;;;14.70;99.90;;;;;;5008174;28;20120;-69
2022/09/11 01:23:17;;;;;;;40.80;29.00;;;14.60;99.90;;;;;;5028484;28;20079;-70
2022/09/11 01:26:07;;;;;;;39.78;28.40;;;14.70;99.90;;;;;;5028129;28;20084;-69
2022/09/11 01:28:42;;;;;;;38.08;28.98;;;14.50;99.90;;;;;;5027972;28;20043;-69
2022/09/11 01:31:11;;;;;;;38.97;31.05;;;14.50;99.90;;;;;;5028335;28;20510;-70
2022/09/11 01:33:45;;;;;;;41.78;30.80;;;14.50;99.90;;;;;;5026662;28;20091;-70
2022/09/11 01:36:21;;;;;;;;;;;14.60;99.90;;;;;;5017005;28;20095;-69
2022/09/11 01:38:59;;;;;;;38.67;27.48;;;14.60;99.90;;;;;;5013730;28;20003;-70
2022/09/11 01:41:30;;;;;;;38.45;30.33;;;14.50;99.90;;;;;;5027665;28;20119;-70
2022/09/11 01:44:12;;;;;;;42.13;29.02;;;14.50;99.90;;;;;;5028136;28;20068;-69
2022/09/11 01:46:42;;;;;;;40.38;29.10;;;14.50;99.90;;;;;;5028086;28;20048;-69
2022/09/11 01:49:15;;;;;;;38.90;28.77;;;14.50;99.90;;;;;;5027946;28;20040;-70
2022/09/11 01:51:41;;;;;;;39.50;28.75;;;14.40;99.90;;;;;;5028062;28;20144;-70
2022/09/11 01:54:15;;;;;;;37.13;27.50;;;14.50;99.90;;;;;;5065765;28;20059;-70
2022/09/11 01:56:47;;;;;;;34.78;24.42;;;14.40;99.90;;;;;;5069720;28;20084;-70
2022/09/11 01:59:18;;;;;;;35.42;27.20;;;14.30;99.90;;;;;;5069536;28;20185;-70
2022/09/11 02:01:52;;;;;;;33.53;25.70;;;14.20;99.90;;;;;;5063139;28;20041;-70
2022/09/11 02:04:20;;;;;;;;;;;14.10;99.90;;;;;;5069107;28;20043;-70
2022/09/11 02:06:51;;;;;;;34.17;24.95;;;15.20;99.90;;;;;;5069959;28;19904;-70
2022/09/11 02:09:23;;;;;;;43.17;31.00;;;14.10;99.90;;;;;;5067442;28;20044;-70
2022/09/11 02:11:53;;;;;;;37.00;28.27;;;14.20;99.90;;;;;;5069949;28;20016;-70
2022/09/11 02:14:39;;;;;;;38.35;27.67;;;14.10;99.90;;;;;;5069104;28;20493;-70
2022/09/11 02:17:26;;;;;;;37.72;26.88;;;14.10;99.90;;;;;;5064189;28;20413;-70
2022/09/11 02:19:54;;;;;;;39.75;30.73;;;14.00;99.90;;;;;;5063368;28;20036;-70
2022/09/11 02:22:20;;;;;;;38.03;28.15;;;14.10;99.90;;;;;;5068743;28;20142;-70
2022/09/11 02:24:45;;;;;;;41.08;27.50;;;14.00;99.90;;;;;;5069413;28;20139;-70
2022/09/11 02:27:17;;;;;;;39.58;28.67;;;14.10;99.90;;;;;;5069021;28;20021;-70
2022/09/11 02:29:42;;;;;;;34.45;27.38;;;14.10;99.90;;;;;;5069439;28;20383;-70
2022/09/11 02:32:10;;;;;;;38.35;28.48;;;14.10;99.90;;;;;;5040382;28;20031;-70
2022/09/11 02:34:36;;;;;;;39.33;29.05;;;15.40;99.90;;;;;;5058581;28;20029;-70
2022/09/11 02:37:14;;;;;;;42.00;27.45;;;14.10;99.90;;;;;;5068940;28;20017;-70
2022/09/11 02:39:48;;;;;;;43.17;28.67;;;14.20;99.90;;;;;;5069413;28;20071;-70
2022/09/11 02:42:38;;;;;;;37.97;27.38;;;14.10;99.90;;;;;;5068676;28;20024;-70
2022/09/11 02:45:16;;;;;;;37.20;26.83;;;14.00;99.90;;;;;;5069308;28;20032;-69
2022/09/11 02:48:13;;;;;;;39.03;27.63;;;14.00;99.90;;;;;;5069048;28;20107;-70
2022/09/11 02:51:18;;;;;;;36.60;27.30;;;13.90;99.90;;;;;;5068886;28;20029;-70
2022/09/11 02:53:53;;;;;;;36.35;26.10;;;14.00;99.90;;;;;;5069197;28;20029;-70
2022/09/11 02:56:47;;;;;;;38.22;26.75;;;13.90;99.90;;;;;;5068409;28;20044;-70
2022/09/11 02:59:39;;;;;;;34.70;26.15;;;14.00;99.90;;;;;;5068329;28;20453;-70
2022/09/11 03:02:11;;;;;;;37.72;27.50;;;13.90;99.90;;;;;;5044210;28;20106;-70
2022/09/11 03:04:37;;;;;;;38.17;26.17;;;13.90;99.90;;;;;;5064384;28;20436;-70
2022/09/11 03:07:03;;;;;;;32.38;23.90;;;13.90;99.90;;;;;;5058995;28;20104;-70
2022/09/11 03:09:28;;;;;;;33.15;24.98;;;13.90;99.90;;;;;;5069161;28;20028;-70
2022/09/11 03:11:54;;;;;;;33.08;24.90;;;13.80;99.90;;;;;;5073059;28;20736;-70
2022/09/11 03:14:19;;;;;;;35.13;26.08;;;13.80;99.90;;;;;;5072268;28;20097;-70
2022/09/11 03:16:45;;;;;;;33.72;24.55;;;13.90;99.90;;;;;;5070586;28;20021;-70
2022/09/11 03:19:11;;;;;;;35.65;24.13;;;13.70;99.90;;;;;;5061104;28;20490;-70
2022/09/11 03:21:37;;;;;;;34.47;25.08;;;13.80;99.90;;;;;;5072502;28;20042;-70
2022/09/11 03:24:03;;;;;;;33.20;24.90;;;13.80;99.90;;;;;;5073159;28;20116;-70
2022/09/11 03:26:30;;;;;;;38.22;27.58;;;13.80;99.90;;;;;;5072592;28;20048;-70
2022/09/11 03:28:56;;;;;;;35.90;25.67;;;13.80;99.90;;;;;;5072538;28;20021;-70
2022/09/11 03:31:22;;;;;;;37.78;27.00;;;13.80;99.90;;;;;;5059800;28;20033;-70
2022/09/11 03:33:47;;;;;;;39.17;25.77;;;13.80;99.90;;;;;;5069553;28;20031;-70
2022/09/11 03:36:13;;;;;;;38.38;26.58;;;13.80;99.90;;;;;;5071716;28;20040;-70
2022/09/11 03:38:38;;;;;;;38.50;27.52;;;13.80;99.90;;;;;;5072035;28;20037;-70
2022/09/11 03:41:04;;;;;;;39.35;26.27;;;13.80;99.90;;;;;;5064044;28;20048;-70
2022/09/11 03:43:31;;;;;;;38.03;27.38;;;13.80;99.90;;;;;;5065109;28;20028;-70
2022/09/11 03:45:57;;;;;;;43.42;28.20;;;13.70;99.90;;;;;;5072550;28;20453;-70
2022/09/11 03:48:24;;;;;;;34.90;25.77;;;13.80;99.90;;;;;;5072116;28;20095;-70
2022/09/11 03:50:49;;;;;;;44.75;28.42;;;13.80;99.90;;;;;;5072048;28;20020;-70
2022/09/11 03:53:15;;;;;;;43.60;27.63;;;13.90;99.90;;;;;;5072053;28;20040;-70
2022/09/11 03:55:41;;;;;;;55.13;28.73;;;13.90;99.90;;;;;;5072422;28;20072;-70
2022/09/11 03:58:08;;;;;;;50.72;28.35;;;13.90;99.90;;;;;;5072363;28;20118;-70
2022/09/11 04:00:35;;;;;;;60.80;27.30;;;13.80;99.90;;;;;;5062180;28;20029;-70
2022/09/11 04:03:01;;;;;;;68.93;26.10;;;13.80;99.90;;;;;;5056547;28;20016;-70
2022/09/11 04:05:27;;;;;;;66.05;23.65;;;14.00;99.90;;;;;;5071728;28;20500;-70
2022/09/11 04:07:53;;;;;;;63.13;24.98;;;13.90;99.90;;;;;;5072208;28;20021;-70
2022/09/11 04:10:20;;;;;;;75.53;27.00;;;13.80;99.90;;;;;;5071945;28;20028;-70
2022/09/11 04:12:46;;;;;;;59.80;25.65;;;13.90;99.90;;;;;;5072024;28;20024;-70
2022/09/11 04:15:12;;;;;;;54.88;26.05;;;13.90;99.90;;;;;;5071489;28;20029;-70
2022/09/11 04:17:38;;;;;;;45.72;25.05;;;13.80;99.90;;;;;;5061694;28;20028;-70
2022/09/11 04:20:04;;;;;;;46.78;23.88;;;13.90;99.90;;;;;;5067016;28;20045;-70
2022/09/11 04:22:30;;;;;;;52.42;24.65;;;13.90;99.90;;;;;;5071902;28;20064;-70
2022/09/11 04:24:56;;;;;;;47.92;26.10;;;13.80;99.90;;;;;;5071933;28;20060;-70
2022/09/11 04:27:22;;;;;;;52.45;26.20;;;13.70;99.90;;;;;;5070901;28;20124;-70
2022/09/11 04:29:48;;;;;;;55.33;23.67;;;16.00;99.90;;;;;;5070013;28;20028;-70
2022/09/11 04:32:14;;;;;;;61.00;24.33;;;13.80;99.90;;;;;;5052588;28;20063;-70
2022/09/11 04:34:39;;;;;;;68.28;24.67;;;13.80;99.90;;;;;;5071738;28;20052;-70
2022/09/11 04:37:05;;;;;;;80.95;23.23;;;13.80;99.90;;;;;;5070157;28;20021;-70
2022/09/11 04:39:31;;;;;;;66.43;24.38;;;13.80;99.90;;;;;;5071275;28;20048;-70
2022/09/11 04:41:56;;;;;;;96.20;27.30;;;13.60;99.90;;;;;;5071447;28;20023;-70
2022/09/11 04:44:25;;;;;;;46.08;21.70;;;13.80;99.90;;;;;;5064904;28;20524;-70
2022/09/11 04:46:50;;;;;;;51.08;23.90;;;13.80;99.90;;;;;;5063344;28;20097;-70
2022/09/11 04:49:16;;;;;;;39.55;22.10;;;13.80;99.90;;;;;;5070843;28;20099;-70
2022/09/11 04:51:42;;;;;;;81.65;24.15;;;13.90;99.90;;;;;;5071659;28;20060;-70
2022/09/11 04:54:13;;;;;;;55.80;25.80;;;13.90;99.90;;;;;;5071206;28;20027;-70
2022/09/11 04:56:39;;;;;;;45.95;22.63;;;13.90;99.90;;;;;;5071212;28;20517;-70
2022/09/11 04:59:12;;;;;;;62.58;24.48;;;13.90;99.90;;;;;;5070865;28;20028;-70
2022/09/11 05:01:38;;;;;;;54.40;22.23;;;13.80;99.90;;;;;;5053529;28;20040;-70
2022/09/11 05:04:04;;;;;;;53.47;20.60;;;13.90;99.90;;;;;;5046774;28;20124;-70
2022/09/11 05:06:31;;;;;;;58.58;21.00;;;13.70;99.90;;;;;;5056760;28;20024;-70
2022/09/11 05:09:02;;;;;;;44.97;17.92;;;13.70;99.90;;;;;;5058632;28;20413;-70
2022/09/11 05:11:29;;;;;;;48.50;20.25;;;13.70;99.90;;;;;;5068872;28;20491;-70
2022/09/11 05:13:57;;;;;;;58.80;19.02;;;13.60;99.90;;;;;;5069231;28;20496;-70
2022/09/11 05:16:23;;;;;;;61.10;20.30;;;13.60;99.90;;;;;;5055597;28;20028;-70
2022/09/11 05:18:51;;;;;;;52.58;19.67;;;13.70;99.90;;;;;;5056367;28;20040;-70
2022/09/11 05:21:18;;;;;;;54.05;18.98;;;13.60;99.90;;;;;;5070059;28;20495;-70
2022/09/11 05:23:47;;;;;;;37.42;17.38;;;13.50;99.90;;;;;;5070277;28;20031;-70
2022/09/11 05:26:15;;;;;;;45.10;17.70;;;13.60;99.90;;;;;;5069838;28;20161;-70
2022/09/11 05:28:40;;;;;;;47.97;19.65;;;13.60;99.90;;;;;;5057902;28;20528;-70
2022/09/11 05:31:12;;;;;;;31.65;19.25;;;13.60;99.90;;;;;;5047296;28;20041;-69
2022/09/11 05:33:38;;;;;;;29.05;17.67;;;13.60;99.90;;;;;;5048915;28;20036;-69
2022/09/11 05:36:05;;;;;;;37.08;19.00;;;13.60;99.90;;;;;;5054848;28;20666;-70
2022/09/11 05:38:30;;;;;;;28.00;16.80;;;13.60;99.90;;;;;;5053973;28;20049;-70
2022/09/11 05:40:56;;;;;;;36.13;19.20;;;13.60;99.90;;;;;;5056923;28;20095;-70
2022/09/11 05:43:22;;;;;;;24.10;18.00;;;14.60;99.90;;;;;;5053551;28;20430;-70
2022/09/11 05:45:56;;;;;;;24.45;18.10;;;13.70;99.90;;;;;;5049160;28;20421;-70
2022/09/11 05:48:22;;;;;;;24.05;17.55;;;13.70;99.90;;;;;;5047177;28;20438;-70
2022/09/11 05:51:01;;;;;;;23.00;17.88;;;13.70;99.90;;;;;;5046860;28;20033;-70
2022/09/11 05:53:32;;;;;;;32.83;17.45;;;13.70;99.90;;;;;;5047913;28;20059;-70
2022/09/11 05:56:07;;;;;;;34.58;17.88;;;13.70;99.90;;;;;;5042880;28;20051;-70
2022/09/11 05:58:32;;;;;;;28.08;18.48;;;13.80;99.90;;;;;;5049766;28;20035;-70
2022/09/11 06:01:07;;;;;;;28.77;17.55;;;14.90;99.90;;;;;;5047946;28;20041;-70
2022/09/11 06:03:33;;;;;;;26.65;17.00;;;13.80;99.90;;;;;;5037511;28;20114;-70
2022/09/11 06:06:01;;;;;;;21.35;17.02;;;13.70;99.90;;;;;;5045105;28;20037;-70
2022/09/11 06:08:27;;;;;;;25.70;16.27;;;13.70;99.90;;;;;;5049460;28;20021;-70
2022/09/11 06:10:52;;;;;;;22.58;17.13;;;13.70;99.90;;;;;;5049681;28;20029;-70
2022/09/11 06:13:18;;;;;;;26.10;17.20;;;13.70;99.90;;;;;;5049343;28;20028;-72
2022/09/11 06:15:47;;;;;;;23.40;18.42;;;13.80;99.90;;;;;;5049212;28;20033;-70
2022/09/11 06:18:14;;;;;;;20.40;16.15;;;13.80;99.90;;;;;;5049410;28;20024;-70
2022/09/11 06:20:40;;;;;;;21.83;17.25;;;13.80;99.90;;;;;;5069460;28;20037;-69
2022/09/11 06:23:07;;;;;;;21.55;16.70;;;13.80;99.90;;;;;;5069782;28;20024;-70
2022/09/11 06:25:34;;;;;;;20.70;16.77;;;13.90;99.90;;;;;;5069140;28;20034;-70
2022/09/11 06:28:00;;;;;;;23.88;17.13;;;13.90;99.90;;;;;;5069189;28;20031;-70
2022/09/11 06:30:25;;;;;;;22.63;18.27;;;13.90;99.90;;;;;;5058191;28;20112;-70
2022/09/11 06:32:52;;;;;;;26.65;19.05;;;13.90;99.90;;;;;;5058557;28;20025;-70
2022/09/11 06:35:17;;;;;;;25.05;19.27;;;13.80;99.90;;;;;;5069017;28;20056;-70
2022/09/11 06:37:43;;;;;;;21.13;16.75;;;14.00;99.90;;;;;;5069677;28;20386;-70
2022/09/11 06:40:12;;;;;;;23.00;16.90;;;14.00;99.90;;;;;;5069346;28;20097;-70
2022/09/11 06:42:38;;;;;;;25.40;17.40;;;14.10;99.90;;;;;;5069013;28;20474;-70
2022/09/11 06:45:04;;;;;;;19.95;16.33;;;14.10;99.90;;;;;;5069389;28;20024;-70
2022/09/11 06:47:30;;;;;;;22.63;17.90;;;14.10;99.90;;;;;;5068926;28;20038;-70
2022/09/11 06:49:55;;;;;;;24.85;18.13;;;14.30;99.90;;;;;;5069509;28;20025;-70
2022/09/11 06:52:21;;;;;;;29.52;19.50;;;14.40;99.90;;;;;;5067539;28;20020;-70
2022/09/11 06:54:48;;;;;;;30.70;18.98;;;14.50;99.90;;;;;;5069122;28;20082;-70
2022/09/11 06:57:13;;;;;;;25.90;18.95;;;14.60;99.90;;;;;;5068446;28;20025;-70
2022/09/11 06:59:39;;;;;;;31.40;20.75;;;14.70;99.90;;;;;;5054713;28;20528;-70
2022/09/11 07:02:04;;;;;;;24.75;19.25;;;14.80;99.90;;;;;;5041021;28;20478;-70
2022/09/11 07:04:30;;;;;;;30.17;20.98;;;14.70;99.90;;;;;;5063087;28;20547;-70
2022/09/11 07:06:56;;;;;;;23.20;19.52;;;14.80;99.90;;;;;;5069328;28;20422;-70
2022/09/11 07:09:21;;;;;;;28.65;21.52;;;14.90;99.90;;;;;;5059758;28;20025;-70
2022/09/11 07:11:46;;;;;;;33.10;21.58;;;15.00;99.90;;;;;;5048696;28;20052;-70
2022/09/11 07:14:12;;;;;;;32.03;20.88;;;15.20;99.90;;;;;;5048609;28;20032;-70
2022/09/11 07:16:38;;;;;;;28.38;22.00;;;15.20;99.90;;;;;;5048919;28;20029;-70
2022/09/11 07:19:03;;;;;;;36.50;22.67;;;15.10;99.90;;;;;;5056559;28;20025;-70
2022/09/11 07:21:29;;;;;;;25.98;21.58;;;15.30;99.90;;;;;;5057955;28;20359;-70
2022/09/11 07:23:57;;;;;;;29.67;24.42;;;15.30;99.90;;;;;;5051072;28;20021;-70
2022/09/11 07:26:25;;;;;;;40.05;23.65;;;15.30;99.90;;;;;;5049290;28;20101;-70
2022/09/11 07:28:51;;;;;;;32.42;24.58;;;15.30;99.90;;;;;;5049533;28;20029;-70
2022/09/11 07:31:19;;;;;;;34.88;25.63;;;15.40;99.90;;;;;;5047038;28;20424;-70
2022/09/11 07:33:49;;;;;;;30.85;22.92;;;15.60;99.90;;;;;;5048303;28;20060;-70
2022/09/11 07:36:20;;;;;;;30.27;22.88;;;15.60;99.90;;;;;;5053461;28;20052;-71
2022/09/11 07:38:47;;;;;;;35.10;25.17;;;15.70;99.90;;;;;;5047427;28;20017;-71
2022/09/11 07:41:15;;;;;;;43.17;27.65;;;15.80;99.90;;;;;;5051297;28;20033;-71
2022/09/11 07:43:44;;;;;;;38.35;26.20;;;15.90;99.90;;;;;;5047030;28;20027;-72
2022/09/11 07:46:11;;;;;;;40.15;25.67;;;16.00;99.90;;;;;;5048243;28;20025;-71
2022/09/11 07:48:38;;;;;;;37.53;25.10;;;16.00;99.90;;;;;;5048753;28;20021;-71
2022/09/11 07:51:06;;;;;;;36.97;25.73;;;16.10;99.90;;;;;;5048715;28;20009;-71
2022/09/11 07:53:34;;;;;;;46.05;30.35;;;16.20;99.90;;;;;;5049567;28;20049;-71
2022/09/11 07:56:02;;;;;;;41.55;29.25;;;16.20;99.90;;;;;;5051094;28;20116;-71
2022/09/11 07:58:32;;;;;;;37.40;27.60;;;16.30;99.90;;;;;;5050285;28;20055;-71
2022/09/11 08:00:58;;;;;;;41.15;30.30;;;16.40;99.90;;;;;;5049598;28;20033;-71
2022/09/11 08:03:23;;;;;;;39.63;29.50;;;16.50;99.90;;;;;;5051621;28;20035;-71
2022/09/11 08:05:49;;;;;;;39.67;31.15;;;17.30;99.90;;;;;;5052320;28;20029;-71
2022/09/11 08:08:14;;;;;;;43.35;32.78;;;16.50;99.90;;;;;;5051784;28;20029;-71
2022/09/11 08:10:40;;;;;;;39.97;30.13;;;16.60;99.90;;;;;;5051314;28;20024;-71
2022/09/11 08:13:06;;;;;;;35.25;28.67;;;16.60;99.90;;;;;;5052166;28;20096;-71
2022/09/11 08:15:31;;;;;;;42.33;32.05;;;16.60;99.90;;;;;;5037576;28;20025;-71
2022/09/11 08:17:57;;;;;;;40.60;30.15;;;16.80;99.90;;;;;;5052136;28;20496;-71
2022/09/11 08:20:22;;;;;;;45.13;35.03;;;16.90;99.90;;;;;;5069617;28;20028;-71
2022/09/11 08:22:48;;;;;;;39.78;31.15;;;17.00;99.90;;;;;;5070563;28;20020;-71
2022/09/11 08:25:13;;;;;;;42.25;33.13;;;16.90;99.90;;;;;;5069281;28;20116;-71
2022/09/11 08:27:39;;;;;;;37.55;29.20;;;16.90;99.90;;;;;;5071962;28;20117;-71
2022/09/11 08:30:05;;;;;;;37.67;31.00;;;17.00;99.90;;;;;;5060532;28;20402;-71
2022/09/11 08:32:30;;;;;;;41.17;31.20;;;17.10;99.90;;;;;;5051191;28;20020;-71
2022/09/11 08:34:56;;;;;;;33.88;28.95;;;17.10;99.90;;;;;;5051517;28;20496;-72
2022/09/11 08:37:22;;;;;;;38.03;29.23;;;17.20;99.90;;;;;;5064307;28;20017;-71
2022/09/11 08:39:47;;;;;;;43.00;34.05;;;17.40;99.90;;;;;;5048444;28;20045;-71
2022/09/11 08:42:15;;;;;;;39.20;31.00;;;17.40;99.90;;;;;;5046979;28;20103;-71
2022/09/11 08:44:51;;;;;;;35.80;30.02;;;17.40;99.90;;;;;;5048208;28;20021;-71
2022/09/11 08:47:34;;;;;;;35.22;28.73;;;17.50;99.90;;;;;;5048568;28;20067;-71
2022/09/11 08:50:14;;;;;;;31.52;28.17;;;17.50;99.90;;;;;;5050137;28;20489;-72
2022/09/11 08:52:41;;;;;;;36.40;31.35;;;17.50;99.90;;;;;;5049525;28;20871;-71
2022/09/11 08:55:12;;;;;;;36.80;31.23;;;17.60;99.90;;;;;;5047770;28;20185;-71
2022/09/11 08:57:56;;;;;;;34.35;29.48;;;17.60;99.90;;;;;;5046358;28;20052;-71
2022/09/11 09:00:26;;;;;;;41.47;31.67;;;17.90;99.90;;;;;;5046673;28;20038;-71
2022/09/11 09:03:07;;;;;;;39.53;33.10;;;18.00;99.90;;;;;;5049664;28;20075;-71
2022/09/11 09:06:07;;;;;;;34.72;30.23;;;17.90;99.90;;;;;;5050675;28;20053;-71
2022/09/11 09:09:00;;;;;;;36.17;31.83;;;17.80;99.90;;;;;;5055401;28;20025;-71
2022/09/11 09:11:32;;;;;;;36.55;31.17;;;17.70;99.90;;;;;;5051349;28;20049;-70
2022/09/11 09:14:21;;;;;;;39.38;33.25;;;17.60;99.90;;;;;;5050953;28;20035;-71
2022/09/11 09:17:05;;;;;;;38.22;34.00;;;17.70;99.90;;;;;;5041549;28;20029;-70
2022/09/11 09:20:10;;;;;;;36.85;33.00;;;17.60;99.90;;;;;;5068341;28;20047;-70
2022/09/11 09:22:53;;;;;;;36.50;32.60;;;17.70;99.90;;;;;;5058413;28;20041;-70
2022/09/11 09:25:23;;;;;;;35.92;32.13;;;18.90;99.90;;;;;;5051887;28;20028;-70
2022/09/11 09:27:53;;;;;;;36.35;32.45;;;17.80;99.90;;;;;;5050896;28;20053;-71
2022/09/11 09:30:22;;;;;;;34.58;30.85;;;17.80;99.90;;;;;;5059624;28;20021;-71
2022/09/11 09:33:14;;;;;;;35.50;31.85;;;18.00;99.90;;;;;;5056480;28;20017;-70
2022/09/11 09:35:42;;;;;;;33.22;29.95;;;18.10;99.90;;;;;;5051111;28;20032;-71
2022/09/11 09:38:11;;;;;;;38.50;34.28;;;18.30;99.90;;;;;;5053354;28;20141;-70
2022/09/11 09:40:37;;;;;;;33.28;29.33;;;18.20;99.90;;;;;;5050797;28;20116;-71
2022/09/11 09:43:11;;;;;;;28.95;26.15;;;18.30;99.90;;;;;;5050702;28;20071;-71
2022/09/11 09:46:01;;;;;;;28.08;25.48;;;18.40;99.90;;;;;;5050788;28;20025;-71
2022/09/11 09:48:31;;;;;;;25.42;22.83;;;18.50;99.90;;;;;;5060688;28;20382;-71
2022/09/11 09:50:56;;;;;;;26.13;23.70;;;18.60;99.90;;;;;;5049803;28;20449;-71
2022/09/11 09:53:32;;;;;;;23.30;21.02;;;18.70;99.90;;;;;;5050177;28;20509;-71
2022/09/11 09:55:59;;;;;;;21.63;19.52;;;18.80;99.90;;;;;;5050350;28;20052;-71
2022/09/11 09:58:39;;;;;;;20.02;18.10;;;18.90;99.90;;;;;;5049881;28;20585;-70
2022/09/11 10:01:45;;;;;;;20.92;18.92;;;18.90;99.90;;;;;;5050337;28;20128;-71
2022/09/11 10:04:15;;;;;;;19.58;17.75;;;18.90;99.90;;;;;;5040743;28;20466;-71
2022/09/11 10:06:42;;;;;;;18.95;17.02;;;18.70;99.90;;;;;;5049577;28;20017;-71
2022/09/11 10:09:26;;;;;;;15.32;13.88;;;18.80;99.90;;;;;;5046583;28;20100;-71
2022/09/11 10:11:52;;;;;;;;;;;18.80;99.90;;;;;;5048785;28;20107;-72
2022/09/11 10:14:20;;;;;;;14.43;13.13;;;18.80;99.90;;;;;;5057620;28;19909;-71
2022/09/11 10:16:50;;;;;;;15.07;13.70;;;19.00;99.90;;;;;;5049711;28;20009;-71
2022/09/11 10:19:33;;;;;;;14.15;12.73;;;19.20;99.90;;;;;;5049215;28;20183;-71
2022/09/11 10:22:20;;;;;;;14.75;13.25;;;19.30;99.90;;;;;;5049880;28;20028;-71
2022/09/11 10:25:00;;;;;;;14.23;12.70;;;19.40;99.90;;;;;;5035959;28;20021;-71
2022/09/11 10:27:29;;;;;;;14.52;13.13;;;19.60;99.90;;;;;;5049506;28;20017;-71
2022/09/11 10:29:56;;;;;;;17.25;15.38;;;19.60;99.90;;;;;;5036411;28;20116;-71
2022/09/11 10:32:23;;;;;;;17.15;15.55;;;19.80;99.90;;;;;;5049518;28;20024;-71
2022/09/11 10:34:50;;;;;;;15.65;13.77;;;20.10;99.90;;;;;;5049494;28;20017;-71
2022/09/11 10:37:22;;;;;;;15.75;14.10;;;20.20;99.90;;;;;;5049558;28;20466;-71
2022/09/11 10:39:49;;;;;;;15.25;13.82;;;20.30;99.90;;;;;;5049811;28;20059;-71
2022/09/11 10:42:22;;;;;;;14.45;12.77;;;20.60;99.90;;;;;;5049500;28;20036;-70
2022/09/11 10:44:50;;;;;;;14.27;12.95;;;20.70;99.90;;;;;;5049781;28;20114;-71
2022/09/11 10:47:21;;;;;;;16.75;12.38;;;20.60;99.90;;;;;;5049472;28;20037;-71
2022/09/11 10:49:48;;;;;;;16.08;14.50;;;21.20;99.90;;;;;;5049309;28;20031;-71
2022/09/11 10:52:16;;;;;;;15.10;13.75;;;21.10;99.90;;;;;;5049328;28;20104;-71
2022/09/11 10:55:14;;;;;;;14.73;13.27;;;21.40;99.90;;;;;;5049948;28;20112;-71
2022/09/11 10:58:07;;;;;;;14.00;11.95;;;21.50;99.90;;;;;;5025547;28;20052;-71
2022/09/11 11:00:34;;;;;;;14.80;13.30;;;21.50;99.90;;;;;;5038127;28;20041;-71
2022/09/11 11:03:06;;;;;;;14.95;13.55;;;21.60;99.90;;;;;;5049750;28;20025;-71
2022/09/11 11:05:55;;;;;;;12.95;11.70;;;21.50;99.90;;;;;;5048996;28;20466;-71
2022/09/11 11:08:20;;;;;;;13.88;12.25;;;21.50;99.90;;;;;;5048933;28;20104;-71
2022/09/11 11:10:55;;;;;;;15.30;13.70;;;21.40;99.90;;;;;;5049764;28;20100;-71
2022/09/11 11:13:34;;;;;;;13.75;11.93;;;21.40;99.90;;;;;;5046450;28;20028;-71
2022/09/11 11:16:24;;;;;;;13.55;12.20;;;21.30;99.90;;;;;;5040236;28;20479;-70
2022/09/11 11:19:15;;;;;;;13.93;12.68;;;21.60;99.90;;;;;;5054650;28;20021;-70
2022/09/11 11:22:12;;;;;;;15.40;14.10;;;21.50;99.90;;;;;;5068478;28;20033;-70
2022/09/11 11:24:46;;;;;;;13.77;12.48;;;21.60;99.90;;;;;;5065075;28;20046;-71
2022/09/11 11:27:24;;;;;;;;;;;21.70;99.90;;;;;;5050553;28;20470;-71
2022/09/11 11:30:07;;;;;;;12.88;11.75;;;21.60;99.90;;;;;;5049881;28;20076;-70
2022/09/11 11:32:50;;;;;;;14.65;13.27;;;21.70;99.90;;;;;;5052657;28;20045;-70
2022/09/11 11:36:00;;;;;;;19.30;14.50;;;21.70;99.90;;;;;;5052465;28;20020;-71
2022/09/11 11:38:42;;;;;;;13.90;12.60;;;21.70;99.70;;;;;;5051495;28;20126;-71
2022/09/11 11:41:31;;;;;;;13.95;12.65;;;21.70;99.20;;;;;;5052875;28;20033;-70
2022/09/11 11:44:00;;;;;;;13.82;12.63;;;21.70;99.90;;;;;;5050641;28;20032;-71
2022/09/11 11:46:34;;;;;;;14.18;12.75;;;21.80;99.80;;;;;;5051929;28;20036;-71
2022/09/11 11:49:04;;;;;;;13.48;12.32;;;21.80;99.60;;;;;;5052532;28;20017;-71
2022/09/11 11:51:39;;;;;;;13.93;12.65;;;21.80;99.50;;;;;;5051332;28;20040;-71
2022/09/11 11:54:16;;;;;;;11.38;10.30;;;22.00;99.40;;;;;;5054229;28;20394;-71
2022/09/11 11:57:01;;;;;;;9.52;8.57;;;22.20;99.30;;;;;;5052894;28;20041;-70
2022/09/11 11:59:35;;;;;;;9.43;8.52;;;22.30;99.10;;;;;;5052069;28;20029;-70
2022/09/11 12:02:10;;;;;;;12.82;11.20;;;22.30;98.80;;;;;;5052253;28;20025;-71
2022/09/11 12:04:52;;;;;;;11.63;10.23;;;22.40;98.20;;;;;;5051094;28;20032;-71
2022/09/11 12:07:29;;;;;;;11.07;9.98;;;22.40;98.30;;;;;;5052151;28;20028;-72
2022/09/11 12:09:57;;;;;;;10.75;9.75;;;22.50;97.50;;;;;;5053309;28;20032;-70
2022/09/11 12:12:26;;;;;;;11.50;10.40;;;22.50;97.90;;;;;;5051902;28;20382;-70
2022/09/11 12:15:03;;;;;;;9.65;8.68;;;22.40;97.80;;;;;;5051848;28;20385;-70
2022/09/11 12:17:33;;;;;;;8.70;7.95;;;22.80;98.00;;;;;;5045761;28;20097;-71
2022/09/11 12:20:10;;;;;;;8.38;7.53;;;22.80;97.60;;;;;;5048409;28;20079;-70
2022/09/11 12:22:48;;;;;;;8.52;7.72;;;25.10;98.10;;;;;;5072520;28;20092;-70
2022/09/11 12:25:20;;;;;;;8.80;7.97;;;23.00;96.40;;;;;;5070455;28;20020;-71
2022/09/11 12:28:26;;;;;;;9.27;8.35;;;23.00;97.00;;;;;;5072551;28;20114;-71
2022/09/11 12:31:14;;;;;;;9.10;8.18;;;22.80;96.40;;;;;;5045373;28;20370;-71
2022/09/11 12:33:40;;;;;;;10.48;9.48;;;22.90;97.00;;;;;;5071900;28;20370;-70
2022/09/11 12:36:34;;;;;;;8.90;8.05;;;22.80;96.20;;;;;;5072289;28;20085;-71
2022/09/11 12:39:27;;;;;;;10.20;9.25;;;22.80;95.60;;;;;;5072101;28;20104;-71
2022/09/11 12:42:08;;;;;;;7.72;7.03;;;22.60;95.60;;;;;;5071900;28;20024;-71
2022/09/11 12:44:46;;;;;;;8.70;7.82;;;22.40;96.20;;;;;;5061340;28;20028;-71
2022/09/11 12:47:22;;;;;;;7.97;7.25;;;22.40;96.10;;;;;;5056331;28;20047;-71
2022/09/11 12:50:16;;;;;;;8.52;7.72;;;22.30;96.20;;;;;;5059175;28;20016;-70